createdAt,value
2022-08-24T00:02:06.833Z,4.65
2022-08-24T00:04:36.694Z,4.75
2022-08-24T00:07:07.140Z,4.45
2022-08-24T00:09:55.594Z,4.82
2022-08-24T00:12:24.595Z,5.07
2022-08-24T00:14:55.037Z,3.63
2022-08-24T00:17:24.282Z,4.07
2022-08-24T00:19:55.063Z,4.40
2022-08-24T00:22:24.006Z,3.78
2022-08-24T00:24:52.428Z,4.50
2022-08-24T00:27:21.469Z,4.10
2022-08-24T00:29:51.003Z,4.43
2022-08-24T00:32:19.435Z,4.90
2022-08-24T00:34:59.059Z,4.72
2022-08-24T00:37:30.103Z,4.60
2022-08-24T00:39:59.697Z,3.67
2022-08-24T00:42:29.325Z,4.38
2022-08-24T00:44:58.473Z,4.45
2022-08-24T00:47:33.342Z,4.25
2022-08-24T00:50:07.312Z,4.55
2022-08-24T00:52:50.869Z,4.13
2022-08-24T00:55:23.730Z,4.97
2022-08-24T00:57:56.516Z,3.95
2022-08-24T01:00:31.774Z,3.58
2022-08-24T01:03:04.707Z,4.28
2022-08-24T01:05:34.213Z,3.80
2022-08-24T01:08:07.550Z,4.38
2022-08-24T01:10:41.262Z,4.05
2022-08-24T01:13:11.719Z,4.13
2022-08-24T01:15:42.697Z,3.78
2022-08-24T01:18:34.132Z,3.90
2022-08-24T01:21:09.118Z,3.78
2022-08-24T01:23:42.225Z,4.25
2022-08-24T01:26:16.500Z,3.75
2022-08-24T01:28:48.111Z,3.40
2022-08-24T01:31:22.374Z,4.15
2022-08-24T01:33:52.596Z,4.50
2022-08-24T01:36:28.173Z,3.72
2022-08-24T01:39:02.769Z,4.18
2022-08-24T01:41:31.435Z,3.53
2022-08-24T01:44:00.714Z,4.47
2022-08-24T01:46:30.536Z,3.47
2022-08-24T01:49:00.171Z,5.65
2022-08-24T01:51:32.110Z,3.97
2022-08-24T01:54:03.784Z,3.88
2022-08-24T01:56:34.334Z,4.20
2022-08-24T01:59:04.202Z,3.75
2022-08-24T02:01:36.895Z,3.33
2022-08-24T02:04:08.758Z,3.47
2022-08-24T02:06:39.274Z,3.80
2022-08-24T02:09:12.758Z,3.67
2022-08-24T02:11:43.118Z,4.05
2022-08-24T02:14:14.740Z,4.50
2022-08-24T02:16:44.116Z,4.00
2022-08-24T02:19:12.890Z,4.00
2022-08-24T02:21:41.999Z,3.63
2022-08-24T02:24:12.070Z,4.30
2022-08-24T02:26:41.087Z,3.72
2022-08-24T02:29:09.576Z,4.03
2022-08-24T02:31:39.385Z,3.80
2022-08-24T02:34:08.306Z,3.53
2022-08-24T02:36:37.231Z,4.00
2022-08-24T02:39:06.709Z,3.83
2022-08-24T02:41:37.870Z,3.58
2022-08-24T02:44:07.218Z,3.45
2022-08-24T02:46:37.825Z,3.90
2022-08-24T02:49:11.712Z,4.13
2022-08-24T02:51:45.541Z,3.97
2022-08-24T02:54:19.768Z,4.18
2022-08-24T02:56:53.091Z,3.70
2022-08-24T02:59:24.900Z,4.07
2022-08-24T03:01:54.629Z,3.67
2022-08-24T03:04:25.450Z,4.10
2022-08-24T03:06:54.742Z,4.35
2022-08-24T03:09:24.783Z,4.30
2022-08-24T03:12:01.292Z,4.22
2022-08-24T03:14:30.021Z,4.07
2022-08-24T03:16:59.371Z,4.22
2022-08-24T03:19:28.484Z,5.05
2022-08-24T03:21:57.768Z,4.50
2022-08-24T03:24:28.410Z,4.00
2022-08-24T03:26:59.509Z,4.18
2022-08-24T03:29:32.951Z,4.20
2022-08-24T03:32:03.851Z,3.97
2022-08-24T03:34:32.688Z,4.30
2022-08-24T03:37:01.376Z,5.32
2022-08-24T03:39:30.815Z,4.65
2022-08-24T03:41:59.604Z,3.95
2022-08-24T03:44:29.904Z,4.18
2022-08-24T03:46:58.851Z,4.65
2022-08-24T03:49:29.644Z,4.38
2022-08-24T03:51:58.323Z,3.85
2022-08-24T03:54:27.210Z,3.90
2022-08-24T03:56:57.526Z,4.30
2022-08-24T03:59:27.743Z,3.92
2022-08-24T04:02:01.330Z,4.13
2022-08-24T04:04:31.416Z,4.05
2022-08-24T04:07:00.162Z,3.95
2022-08-24T04:09:29.728Z,4.47
2022-08-24T04:11:59.282Z,4.03
2022-08-24T04:14:28.736Z,3.90
2022-08-24T04:17:06.250Z,4.05
2022-08-24T04:19:57.990Z,4.00
2022-08-24T04:22:36.579Z,4.03
2022-08-24T04:25:10.244Z,4.10
2022-08-24T04:27:41.643Z,3.58
2022-08-24T04:30:14.146Z,4.32
2022-08-24T04:33:05.407Z,4.30
2022-08-24T04:35:40.337Z,4.30
2022-08-24T04:38:10.282Z,4.15
2022-08-24T04:40:41.647Z,4.00
2022-08-24T04:43:11.981Z,4.15
2022-08-24T04:45:43.316Z,3.70
2022-08-24T04:48:14.937Z,3.72
2022-08-24T04:50:45.661Z,4.13
2022-08-24T04:53:15.323Z,4.68
2022-08-24T04:55:50.617Z,4.40
2022-08-24T04:58:20.928Z,4.43
2022-08-24T05:00:49.994Z,4.07
2022-08-24T05:03:20.375Z,3.83
2022-08-24T05:05:51.153Z,4.55
2022-08-24T05:08:21.207Z,4.60
2022-08-24T05:10:52.300Z,4.45
2022-08-24T05:13:22.642Z,4.30
2022-08-24T05:15:51.499Z,4.03
2022-08-24T05:18:21.883Z,4.10
2022-08-24T05:20:50.730Z,4.22
2022-08-24T05:23:20.696Z,4.90
2022-08-24T05:25:49.651Z,5.05
2022-08-24T05:28:19.230Z,3.92
2022-08-24T05:30:47.853Z,4.05
2022-08-24T05:33:21.370Z,4.40
2022-08-24T05:35:50.487Z,3.97
2022-08-24T05:38:19.614Z,4.40
2022-08-24T05:40:48.730Z,4.05
2022-08-24T05:43:17.930Z,3.90
2022-08-24T05:45:47.350Z,5.18
2022-08-24T05:48:16.569Z,4.35
2022-08-24T05:51:13.853Z,5.13
2022-08-24T05:53:52.428Z,4.13
2022-08-24T05:56:27.683Z,4.63
2022-08-24T05:59:00.887Z,4.15
2022-08-24T06:01:30.137Z,4.22
2022-08-24T06:03:59.855Z,4.85
2022-08-24T06:06:35.059Z,4.07
2022-08-24T06:09:05.207Z,4.70
2022-08-24T06:11:36.608Z,4.65
2022-08-24T06:14:11.981Z,4.70
2022-08-24T06:16:52.784Z,4.65
2022-08-24T06:19:23.210Z,4.25
2022-08-24T06:21:55.453Z,5.13
2022-08-24T06:24:46.853Z,4.05
2022-08-24T06:27:22.734Z,4.05
2022-08-24T06:29:57.288Z,4.30
2022-08-24T06:32:46.858Z,4.88
2022-08-24T06:35:25.899Z,4.57
2022-08-24T06:37:56.140Z,4.43
2022-08-24T06:40:27.225Z,4.25
2022-08-24T06:42:57.648Z,4.00
2022-08-24T06:45:45.722Z,4.13
2022-08-24T06:48:18.584Z,5.47
2022-08-24T06:50:50.044Z,4.50
2022-08-24T06:53:20.422Z,4.82
2022-08-24T06:55:52.583Z,4.88
2022-08-24T06:58:24.579Z,4.70
2022-08-24T07:00:55.410Z,3.97
2022-08-24T07:06:25.128Z,4.80
2022-08-24T07:08:58.205Z,4.03
2022-08-24T07:12:36.099Z,3.90
2022-08-24T07:15:16.603Z,5.38
2022-08-24T07:17:51.468Z,4.25
2022-08-24T07:20:20.308Z,5.15
2022-08-24T07:23:07.367Z,4.78
2022-08-24T07:25:38.094Z,4.25
2022-08-24T07:28:10.147Z,4.82
2022-08-24T07:30:43.100Z,4.43
2022-08-24T07:33:13.230Z,4.30
2022-08-24T07:35:42.887Z,4.65
2022-08-24T07:38:13.886Z,4.72
2022-08-24T07:41:14.333Z,4.57
2022-08-24T07:43:38.129Z,4.38
2022-08-24T07:46:11.880Z,3.80
2022-08-24T07:48:40.713Z,3.35
2022-08-24T07:51:11.288Z,3.47
2022-08-24T07:53:53.158Z,4.65
2022-08-24T07:56:29.747Z,3.78
2022-08-24T07:59:00.763Z,3.75
2022-08-24T08:01:30.302Z,3.67
2022-08-24T08:03:59.362Z,4.25
2022-08-24T08:06:27.860Z,4.13
2022-08-24T08:09:02.873Z,4.60
2022-08-24T08:11:35.286Z,3.55
2022-08-24T08:14:04.239Z,3.28
2022-08-24T08:16:33.013Z,3.28
2022-08-24T08:19:17.077Z,3.85
2022-08-24T08:22:05.632Z,3.67
2022-08-24T08:24:39.819Z,3.13
2022-08-24T08:27:11.696Z,2.63
2022-08-24T08:29:46.292Z,3.55
2022-08-24T08:32:19.951Z,3.28
2022-08-24T08:34:50.545Z,3.38
2022-08-24T08:37:20.390Z,3.10
2022-08-24T08:39:50.430Z,3.25
2022-08-24T08:42:49.513Z,3.55
2022-08-24T08:45:36.295Z,3.72
2022-08-24T08:49:01.234Z,3.20
2022-08-24T08:51:51.820Z,3.70
2022-08-24T08:54:31.236Z,4.07
2022-08-24T08:57:17.411Z,4.55
2022-08-24T09:00:03.089Z,4.45
2022-08-24T09:02:51.463Z,4.85
2022-08-24T09:08:43.830Z,5.20
2022-08-24T09:11:34.474Z,5.00
2022-08-24T09:14:31.580Z,5.20
2022-08-24T09:17:16.257Z,4.20
2022-08-24T09:20:00.943Z,4.43
2022-08-24T09:22:43.749Z,3.72
2022-08-24T09:25:37.161Z,4.55
2022-08-24T09:28:30.294Z,4.93
2022-08-24T09:31:22.174Z,5.10
2022-08-24T09:34:07.673Z,4.50
2022-08-24T09:36:54.191Z,4.55
2022-08-24T09:39:39.543Z,4.72
2022-08-24T09:42:32.345Z,4.25
2022-08-24T09:45:33.937Z,5.38
2022-08-24T09:54:04.588Z,6.47
2022-08-24T09:57:11.543Z,4.15
2022-08-24T09:59:59.579Z,5.05
2022-08-24T10:02:58.880Z,5.95
2022-08-24T10:05:54.864Z,5.22
2022-08-24T10:08:41.490Z,6.25
2022-08-24T10:11:21.209Z,5.60
2022-08-24T10:14:01.827Z,5.97
2022-08-24T10:16:42.289Z,6.18
2022-08-24T10:19:33.239Z,6.55
2022-08-24T10:22:17.532Z,6.57
2022-08-24T10:25:12.203Z,6.03
2022-08-24T10:27:51.541Z,6.90
2022-08-24T10:30:54.508Z,6.30
2022-08-24T10:33:26.884Z,6.35
2022-08-24T10:36:22.163Z,5.53
2022-08-24T10:39:09.611Z,5.13
2022-08-24T10:42:34.861Z,7.85
2022-08-24T10:45:18.371Z,5.82
2022-08-24T10:48:07.254Z,5.95
2022-08-24T10:50:53.027Z,6.00
2022-08-24T10:53:26.165Z,6.20
2022-08-24T10:56:12.870Z,6.53
2022-08-24T10:58:55.683Z,6.35
2022-08-24T11:01:32.002Z,6.10
2022-08-24T11:04:05.433Z,5.90
2022-08-24T11:06:37.757Z,5.07
2022-08-24T11:09:10.199Z,6.97
2022-08-24T11:11:40.885Z,7.70
2022-08-24T11:14:24.600Z,6.97
2022-08-24T11:16:57.629Z,6.00
2022-08-24T11:19:35.490Z,6.43
2022-08-24T11:22:06.643Z,6.13
2022-08-24T11:24:44.436Z,6.07
2022-08-24T11:27:34.420Z,6.55
2022-08-24T11:30:11.574Z,5.68
2022-08-24T11:32:45.316Z,7.28
2022-08-24T11:35:28.022Z,6.28
2022-08-24T11:37:59.443Z,6.57
2022-08-24T11:40:32.217Z,5.75
2022-08-24T11:43:26.565Z,6.97
2022-08-24T11:46:08.751Z,6.47
2022-08-24T11:48:49.921Z,6.40
2022-08-24T11:51:32.937Z,7.18
2022-08-24T11:54:06.997Z,7.07
2022-08-24T11:56:43.608Z,6.55
2022-08-24T11:59:23.159Z,7.63
2022-08-24T12:01:58.341Z,6.60
2022-08-24T12:04:47.713Z,7.63
2022-08-24T12:07:25.887Z,7.05
2022-08-24T12:10:12.044Z,7.10
2022-08-24T12:12:48.079Z,6.50
2022-08-24T12:15:21.507Z,6.03
2022-08-24T12:17:58.408Z,7.55
2022-08-24T12:20:34.601Z,6.75
2022-08-24T12:23:18.987Z,6.82
2022-08-24T12:26:04.708Z,8.10
2022-08-24T12:28:40.037Z,7.75
2022-08-24T12:31:17.439Z,7.47
2022-08-24T12:33:52.669Z,6.47
2022-08-24T12:36:29.137Z,6.25
2022-08-24T12:39:10.458Z,6.47
2022-08-24T12:41:49.523Z,6.90
2022-08-24T12:44:20.370Z,6.75
2022-08-24T12:46:54.511Z,6.15
2022-08-24T12:49:31.059Z,7.40
2022-08-24T12:52:15.608Z,6.38
2022-08-24T12:55:01.382Z,6.22
2022-08-24T12:57:53.866Z,7.63
2022-08-24T13:00:28.388Z,6.22
2022-08-24T13:03:02.033Z,7.10
2022-08-24T13:05:43.559Z,6.35
2022-08-24T13:08:16.816Z,6.88
2022-08-24T13:10:55.873Z,6.90
2022-08-24T13:13:46.982Z,7.25
2022-08-24T13:16:47.665Z,7.75
2022-08-24T13:19:32.409Z,5.57
2022-08-24T13:22:41.529Z,7.25
2022-08-24T13:25:45.302Z,6.45
2022-08-24T13:28:32.461Z,7.03
2022-08-24T13:31:15.568Z,7.05
2022-08-24T13:33:48.239Z,6.70
2022-08-24T13:36:49.168Z,7.28
2022-08-24T13:39:52.954Z,5.93
2022-08-24T13:42:45.909Z,8.30
2022-08-24T13:45:26.990Z,7.78
2022-08-24T13:48:04.291Z,6.18
2022-08-24T13:50:39.050Z,6.80
2022-08-24T13:53:35.842Z,6.50
2022-08-24T13:56:33.169Z,7.60
2022-08-24T13:59:12.342Z,7.53
2022-08-24T14:02:01.203Z,7.47
2022-08-24T14:04:43.905Z,8.38
2022-08-24T14:07:19.955Z,9.68
2022-08-24T14:10:03.107Z,7.50
2022-08-24T14:12:55.495Z,8.32
2022-08-24T14:15:46.775Z,8.50
2022-08-24T14:18:24.763Z,7.35
2022-08-24T14:21:08.871Z,6.57
2022-08-24T14:23:52.612Z,7.53
2022-08-24T14:27:02.207Z,7.90
2022-08-24T14:29:38.358Z,6.60
2022-08-24T14:32:41.041Z,8.05
2022-08-24T14:35:24.114Z,8.77
2022-08-24T14:38:03.651Z,5.88
2022-08-24T14:40:37.545Z,8.90
2022-08-24T14:43:30.636Z,9.10
2022-08-24T14:46:09.180Z,7.40
2022-08-24T14:48:49.543Z,6.35
2022-08-24T14:51:39.300Z,6.60
2022-08-24T14:54:18.684Z,9.18
2022-08-24T14:57:03.921Z,6.97
2022-08-24T14:59:47.298Z,5.82
2022-08-24T15:02:50.487Z,6.32
2022-08-24T15:05:26.058Z,6.03
2022-08-24T15:07:58.955Z,6.18
2022-08-24T15:10:37.054Z,6.35
2022-08-24T15:13:11.607Z,6.13
2022-08-24T15:15:51.118Z,7.43
2022-08-24T15:18:34.832Z,6.55
2022-08-24T15:21:14.036Z,6.53
2022-08-24T15:23:53.624Z,8.07
2022-08-24T15:26:34.918Z,6.93
2022-08-24T15:29:13.390Z,5.90
2022-08-24T15:31:43.198Z,5.78
2022-08-24T15:34:12.416Z,6.20
2022-08-24T15:36:42.328Z,5.38
2022-08-24T15:39:26.217Z,5.38
2022-08-24T15:41:57.442Z,4.03
2022-08-24T15:44:29.818Z,4.53
2022-08-24T15:47:02.380Z,4.22
2022-08-24T15:49:38.160Z,4.72
2022-08-24T15:52:10.708Z,4.47
2022-08-24T15:54:44.628Z,5.60
2022-08-24T15:57:29.185Z,4.13
2022-08-24T16:00:10.648Z,4.50
2022-08-24T16:05:23.827Z,3.50
2022-08-24T16:08:08.270Z,3.60
2022-08-24T16:10:41.362Z,4.75
2022-08-24T16:13:15.166Z,4.10
2022-08-24T16:15:49.015Z,3.47
2022-08-24T16:18:18.923Z,3.70
2022-08-24T16:20:49.121Z,4.40
2022-08-24T16:23:28.825Z,5.05
2022-08-24T16:26:24.243Z,4.57
2022-08-24T16:28:56.594Z,4.28
2022-08-24T16:34:23.033Z,4.60
2022-08-24T16:36:51.565Z,4.10
2022-08-24T16:39:21.633Z,4.90
2022-08-24T16:41:51.480Z,4.30
2022-08-24T16:44:20.081Z,4.30
2022-08-24T16:46:54.549Z,5.28
2022-08-24T16:49:23.037Z,4.32
2022-08-24T16:51:52.031Z,4.32
2022-08-24T16:54:21.841Z,5.32
2022-08-24T16:56:50.815Z,4.78
2022-08-24T16:59:26.625Z,4.55
2022-08-24T17:01:55.947Z,4.78
2022-08-24T17:04:24.801Z,4.57
2022-08-24T17:06:53.450Z,4.38
2022-08-24T17:09:23.999Z,3.80
2022-08-24T17:11:52.819Z,4.33
2022-08-24T17:14:21.379Z,3.80
2022-08-24T17:16:50.369Z,4.63
2022-08-24T17:19:20.846Z,4.03
2022-08-24T17:21:50.010Z,4.18
2022-08-24T17:24:22.030Z,4.18
2022-08-24T17:29:22.491Z,5.05
2022-08-24T17:31:52.406Z,4.45
2022-08-24T17:34:22.594Z,4.32
2022-08-24T17:36:54.269Z,4.68
2022-08-24T17:39:24.510Z,6.00
2022-08-24T17:41:55.432Z,4.68
2022-08-24T17:44:26.109Z,5.38
2022-08-24T17:46:57.793Z,4.47
2022-08-24T17:49:27.130Z,4.53
2022-08-24T17:51:56.997Z,4.30
2022-08-24T17:54:28.731Z,4.18
2022-08-24T17:56:58.917Z,3.97
2022-08-24T17:59:33.000Z,4.88
2022-08-24T18:02:05.298Z,4.25
2022-08-24T18:04:35.979Z,3.38
2022-08-24T18:07:11.723Z,3.70
2022-08-24T18:09:46.322Z,3.67
2022-08-24T18:12:19.202Z,3.80
2022-08-24T18:14:48.028Z,3.33
2022-08-24T18:17:22.594Z,3.60
2022-08-24T18:19:55.284Z,3.65
2022-08-24T18:22:23.736Z,4.10
2022-08-24T18:24:52.396Z,3.22
2022-08-24T18:27:29.415Z,3.92
2022-08-24T18:30:01.608Z,2.83
2022-08-24T18:32:37.757Z,4.90
2022-08-24T18:35:09.726Z,2.90
2022-08-24T18:37:39.985Z,3.05
2022-08-24T18:40:10.471Z,3.25
2022-08-24T18:42:48.351Z,3.33
2022-08-24T18:45:17.316Z,3.03
2022-08-24T18:47:53.236Z,2.50
2022-08-24T18:53:30.315Z,2.88
2022-08-24T18:56:21.535Z,3.50
2022-08-24T18:58:53.399Z,2.67
2022-08-24T19:01:58.002Z,2.63
2022-08-24T19:04:33.296Z,2.40
2022-08-24T19:10:05.852Z,2.50
2022-08-24T19:12:42.471Z,2.08
2022-08-24T19:15:37.813Z,2.35
2022-08-24T19:18:19.413Z,1.95
2022-08-24T19:20:58.563Z,3.00
2022-08-24T19:26:28.220Z,2.42
2022-08-24T19:29:05.741Z,1.90
2022-08-24T19:31:45.147Z,2.75
2022-08-24T19:34:14.400Z,3.30
2022-08-24T19:36:47.385Z,2.53
2022-08-24T19:39:16.486Z,1.98
2022-08-24T19:42:10.862Z,2.55
2022-08-24T19:45:04.501Z,2.70
2022-08-24T19:47:38.552Z,2.65
2022-08-24T19:50:10.218Z,2.20
2022-08-24T19:52:43.955Z,2.45
2022-08-24T19:55:14.715Z,2.88
2022-08-24T19:57:49.163Z,2.55
2022-08-24T20:00:28.964Z,2.15
2022-08-24T20:03:00.920Z,2.53
2022-08-24T20:05:30.339Z,2.60
2022-08-24T20:08:00.121Z,2.50
2022-08-24T20:10:29.090Z,1.98
2022-08-24T20:12:57.661Z,3.03
2022-08-24T20:15:26.712Z,2.05
2022-08-24T20:17:57.927Z,2.28
2022-08-24T20:20:29.499Z,3.15
2022-08-24T20:23:03.044Z,2.65
2022-08-24T20:25:32.089Z,2.60
2022-08-24T20:28:27.668Z,3.00
2022-08-24T20:33:24.422Z,2.38
2022-08-24T20:35:55.087Z,2.20
2022-08-24T20:38:24.906Z,2.00
2022-08-24T20:40:54.290Z,2.38
2022-08-24T20:43:22.958Z,1.85
2022-08-24T20:45:53.301Z,2.92
2022-08-24T20:48:28.236Z,2.47
2022-08-24T20:50:58.705Z,2.78
2022-08-24T20:53:28.078Z,2.38
2022-08-24T20:55:58.489Z,2.53
2022-08-24T20:58:27.417Z,2.70
2022-08-24T21:00:56.142Z,2.30
2022-08-24T21:03:24.841Z,2.45
2022-08-24T21:05:53.776Z,2.42
2022-08-24T21:08:25.969Z,3.38
2022-08-24T21:10:55.159Z,2.40
2022-08-24T21:13:24.578Z,3.22
2022-08-24T21:15:53.576Z,2.88
2022-08-24T21:18:22.221Z,2.97
2022-08-24T21:21:03.766Z,3.13
2022-08-24T21:23:35.517Z,3.10
2022-08-24T21:26:07.280Z,2.40
2022-08-24T21:28:37.050Z,2.65
2022-08-24T21:31:06.579Z,2.33
2022-08-24T21:33:52.810Z,2.33
2022-08-24T21:36:23.650Z,2.60
2022-08-24T21:38:54.978Z,2.67
2022-08-24T21:41:24.903Z,2.33
2022-08-24T21:43:53.512Z,3.28
2022-08-24T21:46:25.190Z,3.00
2022-08-24T21:48:53.862Z,2.53
2022-08-24T21:51:22.699Z,3.70
2022-08-24T21:53:51.603Z,2.72
2022-08-24T21:56:30.286Z,2.13
2022-08-24T21:58:59.288Z,2.80
2022-08-24T22:01:29.194Z,2.67
2022-08-24T22:03:58.918Z,3.08
2022-08-24T22:06:31.302Z,2.78
2022-08-24T22:09:01.557Z,2.30
2022-08-24T22:11:32.358Z,2.47
2022-08-24T22:14:01.293Z,2.55
2022-08-24T22:16:29.972Z,2.35
2022-08-24T22:18:58.408Z,2.92
2022-08-24T22:21:30.532Z,2.42
2022-08-24T22:23:59.967Z,3.00
2022-08-24T22:26:30.868Z,2.33
2022-08-24T22:29:05.482Z,2.47
2022-08-24T22:31:37.402Z,2.95
2022-08-24T22:34:09.858Z,2.38
2022-08-24T22:36:38.560Z,2.70
2022-08-24T22:39:09.566Z,2.55
2022-08-24T22:41:39.372Z,2.88
2022-08-24T22:44:21.938Z,2.90
2022-08-24T22:46:52.922Z,2.90
2022-08-24T22:49:22.936Z,3.38
2022-08-24T22:51:52.280Z,2.25
2022-08-24T22:54:23.096Z,2.40
2022-08-24T22:56:53.599Z,2.47
2022-08-24T22:59:25.884Z,3.38
2022-08-24T23:01:56.311Z,2.55
2022-08-24T23:04:27.488Z,2.70
2022-08-24T23:06:56.155Z,2.50
2022-08-24T23:09:24.669Z,2.63
2022-08-24T23:11:54.031Z,2.67
2022-08-24T23:14:25.903Z,2.20
2022-08-24T23:16:55.852Z,2.55
2022-08-24T23:19:43.643Z,2.58
2022-08-24T23:22:14.976Z,2.63
2022-08-24T23:24:45.306Z,2.33
2022-08-24T23:27:16.705Z,3.08
2022-08-24T23:29:47.718Z,2.95
2022-08-24T23:32:18.212Z,2.45
2022-08-24T23:34:48.084Z,2.28
2022-08-24T23:37:17.082Z,3.13
2022-08-24T23:39:46.675Z,2.20
2022-08-24T23:42:15.311Z,2.35
2022-08-24T23:44:43.860Z,2.25
2022-08-24T23:47:14.252Z,2.42
2022-08-24T23:49:42.724Z,2.65
2022-08-24T23:52:26.727Z,2.70
2022-08-24T23:54:59.995Z,3.13
2022-08-24T23:57:47.071Z,2.50
